Time;durP1;ratioP1;P1;durP2;ratioP2;P2;SDS_P1;SDS_P2;PMS_P1;PMS_P2;Temp;Humidity;BMP_temperature;BMP_pressure;BME280_temperature;BME280_humidity;BME280_pressure;Samples;Min_cycle;Max_cycle;Signal;HPM_P1;HPM_P2
2022/01/19 00:00:34;;;;;;;0.27;0.20;;;;;;;1.67;39.21;96286.59;5091446;28;20568;-54
2022/01/19 00:03:02;;;;;;;0.30;0.20;;;;;;;2.85;39.47;96491.41;5091579;28;20468;-53
2022/01/19 00:05:31;;;;;;;0.30;0.20;;;;;;;3.06;39.80;96468.53;5091343;28;20889;-53
2022/01/19 00:08:00;;;;;;;0.30;0.20;;;;;;;3.01;39.53;96470.16;5091675;28;20460;-54
2022/01/19 00:10:28;;;;;;;0.30;0.20;;;;;;;2.70;40.89;96459.28;5091611;28;20467;-54
2022/01/19 00:12:59;;;;;;;0.33;0.33;;;;;;;2.65;40.11;96491.28;5091540;28;20497;-54
2022/01/19 00:15:29;;;;;;;0.30;0.20;;;;;;;2.82;41.36;96503.06;5091903;28;20432;-53
2022/01/19 00:17:59;;;;;;;0.30;0.30;;;;;;;2.72;41.24;96484.28;5091868;28;20505;-53
2022/01/19 00:20:30;;;;;;;0.33;0.30;;;;;;;2.65;41.37;96495.69;5092442;28;20533;-53
2022/01/19 00:23:00;;;;;;;1.70;1.60;;;;;;;2.56;41.69;96498.47;5095851;28;20508;-53
2022/01/19 00:25:29;;;;;;;0.30;0.30;;;;;;;2.86;42.38;96513.97;5095503;28;20493;-53
2022/01/19 00:27:59;;;;;;;0.30;0.20;;;;;;;2.65;41.73;96491.28;5095432;28;20464;-53
2022/01/19 00:30:28;;;;;;;0.20;0.20;;;;;;;2.82;43.22;96497.84;5095658;28;20493;-53
2022/01/19 00:32:57;;;;;;;0.30;0.20;;;;;;;2.14;43.82;96482.84;5095325;28;20467;-53
2022/01/19 00:35:25;;;;;;;0.30;0.20;;;;;;;2.08;42.65;96514.94;5095623;28;20439;-52
2022/01/19 00:37:54;;;;;;;0.97;0.93;;;;;;;2.19;41.84;96519.69;5095307;28;20428;-52
2022/01/19 00:40:23;;;;;;;1.07;0.97;;;;;;;1.62;41.37;96534.59;5095122;28;20907;-52
2022/01/19 00:42:52;;;;;;;0.30;0.20;;;;;;;1.64;42.08;96527.38;5095169;28;20417;-52
2022/01/19 00:45:22;;;;;;;0.30;0.30;;;;;;;2.09;41.51;96524.44;5095398;28;20467;-52
2022/01/19 00:47:51;;;;;;;0.30;0.20;;;;;;;1.17;41.50;96450.28;5095325;28;20775;-52
2022/01/19 00:50:22;;;;;;;0.30;0.27;;;;;;;1.84;42.99;96531.00;5095369;28;20428;-53
2022/01/19 00:52:52;;;;;;;0.30;0.20;;;;;;;1.63;42.37;96515.28;5094100;28;21073;-53
2022/01/19 00:55:22;;;;;;;0.30;0.20;;;;;;;2.16;43.54;96527.91;5095125;28;20437;-52
2022/01/19 00:57:51;;;;;;;0.23;0.20;;;;;;;0.83;43.86;96481.38;5094989;28;20928;-54
2022/01/19 01:00:23;;;;;;;0.27;0.20;;;;;;;1.11;45.84;96539.75;5094364;28;20496;-53
2022/01/19 01:02:52;;;;;;;0.40;0.40;;;;;;;0.62;44.18;96539.47;5094674;28;20420;-53
2022/01/19 01:05:22;;;;;;;0.20;0.20;;;;;;;1.06;43.60;96504.78;5094494;28;20427;-53
2022/01/19 01:07:51;;;;;;;0.27;0.20;;;;;;;1.79;41.76;96555.09;5095026;28;20859;-53
2022/01/19 01:10:21;;;;;;;0.20;0.20;;;;;;;2.07;41.70;96552.56;5094471;28;20428;-53
2022/01/19 01:12:52;;;;;;;0.30;0.20;;;;;;;1.82;41.51;96510.28;5094340;28;20917;-53
2022/01/19 01:15:36;;;;;;;0.30;0.20;;;;;;;2.19;41.90;96551.06;5094479;28;20481;-53
2022/01/19 01:18:19;;;;;;;0.30;0.20;;;;;;;2.05;42.10;96564.22;5094465;28;20424;-53
2022/01/19 01:20:49;;;;;;;0.30;0.30;;;;;;;1.99;41.74;96562.34;5094339;28;20480;-53
2022/01/19 01:23:18;;;;;;;0.20;0.20;;;;;;;1.41;42.86;96547.59;5094411;28;20516;-53
2022/01/19 01:25:48;;;;;;;0.30;0.20;;;;;;;1.59;44.80;96561.09;5094381;28;20916;-53
2022/01/19 01:28:18;;;;;;;0.30;0.20;;;;;;;0.55;44.75;96567.25;5094277;28;20440;-53
2022/01/19 01:30:50;;;;;;;0.30;0.30;;;;;;;0.20;44.86;96562.66;5094464;28;20857;-53
2022/01/19 01:33:19;;;;;;;0.20;0.20;;;;;;;-0.63;47.27;96543.44;5094176;28;20424;-53
2022/01/19 01:35:47;;;;;;;0.30;0.20;;;;;;;-0.93;47.84;96464.34;5094019;28;20481;-53
2022/01/19 01:38:16;;;;;;;0.23;0.20;;;;;;;0.18;48.55;96563.81;5094155;28;20482;-53
2022/01/19 01:41:05;;;;;;;0.30;0.20;;;;;;;0.31;45.33;96499.66;5093856;28;20495;-53
2022/01/19 01:43:33;;;;;;;0.30;0.20;;;;;;;0.17;44.38;96559.59;5093969;28;20477;-53
2022/01/19 01:46:08;;;;;;;0.30;0.20;;;;;;;-0.45;46.20;96554.41;5094063;28;20435;-53
2022/01/19 01:48:42;;;;;;;0.20;0.20;;;;;;;0.51;49.15;96554.72;5093948;28;20423;-53
2022/01/19 01:53:57;;;;;;;0.20;0.20;;;;;;;-0.50;46.96;96553.31;5093838;28;20467;-53
2022/01/19 01:56:26;;;;;;;0.50;0.50;;;;;;;-1.63;46.55;96473.88;5093723;28;20494;-53
2022/01/19 01:58:54;;;;;;;0.30;0.20;;;;;;;-1.49;47.28;96478.38;5093657;28;20416;-53
2022/01/19 02:01:24;;;;;;;0.20;0.20;;;;;;;-0.67;47.46;96549.97;5093452;28;20548;-53
2022/01/19 02:03:53;;;;;;;0.30;0.20;;;;;;;-0.13;50.00;96546.41;5093623;28;20444;-53
2022/01/19 02:06:38;;;;;;;0.20;0.20;;;;;;;0.14;47.73;96547.72;5093650;28;20456;-52
2022/01/19 02:09:11;;;;;;;0.30;0.30;;;;;;;0.44;47.81;96535.56;5093809;28;20493;-53
2022/01/19 02:23:19;;;;;;;0.20;0.20;;;;;;;-0.09;46.46;96519.03;5068274;28;20535;-53
2022/01/19 02:25:49;;;;;;;0.20;0.20;;;;;;;0.10;44.69;96516.97;5093165;28;20470;-53
2022/01/19 02:31:47;;;;;;;0.30;0.20;;;;;;;1.10;42.05;96514.66;5093002;28;20487;-53
2022/01/19 02:42:39;;;;;;;0.30;0.20;;;;;;;1.81;39.67;96515.69;5092725;28;20432;-53
2022/01/19 02:50:42;;;;;;;0.23;0.20;;;;;;;1.62;42.25;96503.25;5092997;28;20443;-53
2022/01/19 02:53:11;;;;;;;0.20;0.10;;;;;;;1.97;42.08;96523.31;5092671;28;20503;-53
2022/01/19 02:55:40;;;;;;;0.20;0.20;;;;;;;1.17;41.96;96446.84;5092563;28;20432;-53
2022/01/19 02:58:08;;;;;;;0.20;0.20;;;;;;;1.34;43.15;96521.41;5092630;28;20456;-53
2022/01/19 03:09:01;;;;;;;0.20;0.20;;;;;;;-0.46;46.79;96516.34;5088613;28;20489;-53
2022/01/19 03:11:30;;;;;;;0.40;0.40;;;;;;;-1.48;48.44;96409.00;5092300;28;20458;-53
2022/01/19 03:13:58;;;;;;;0.30;0.30;;;;;;;-1.12;45.86;96464.78;5092596;28;20762;-53
2022/01/19 03:16:27;;;;;;;0.20;0.20;;;;;;;-0.56;46.03;96492.31;5092291;28;20436;-54
2022/01/19 03:18:56;;;;;;;0.30;0.30;;;;;;;-0.53;45.41;96525.81;5092510;28;20511;-53
2022/01/19 03:21:24;;;;;;;0.30;0.20;;;;;;;-0.76;45.83;96522.38;5092503;28;20888;-53
2022/01/19 03:23:52;;;;;;;0.20;0.20;;;;;;;-0.07;44.75;96425.03;5092216;28;20469;-53
2022/01/19 03:26:23;;;;;;;0.20;0.20;;;;;;;-0.41;48.22;96516.66;5092224;28;20432;-53
2022/01/19 03:28:51;;;;;;;0.30;0.20;;;;;;;-1.06;49.64;96528.34;5091759;28;20545;-53
2022/01/19 03:31:19;;;;;;;0.20;0.17;;;;;;;-1.43;51.94;96541.91;5092025;28;20436;-53
2022/01/19 03:33:48;;;;;;;0.20;0.20;;;;;;;-1.05;50.99;96540.34;5091837;28;20511;-53
2022/01/19 03:36:17;;;;;;;0.30;0.20;;;;;;;-0.66;49.06;96422.22;5091543;28;20444;-53
2022/01/19 03:38:46;;;;;;;0.40;0.40;;;;;;;0.51;48.40;96536.47;5091975;28;20433;-53
2022/01/19 03:41:14;;;;;;;0.30;0.20;;;;;;;0.86;45.93;96535.78;5091816;28;20499;-53
2022/01/19 03:43:44;;;;;;;0.20;0.20;;;;;;;-0.07;47.75;96550.13;5091817;28;20424;-53
2022/01/19 03:46:15;;;;;;;0.20;0.20;;;;;;;-1.99;51.03;96493.38;5092100;28;20504;-53
2022/01/19 03:48:52;;;;;;;0.37;0.37;;;;;;;-2.22;56.01;96581.50;5091846;28;20432;-54
2022/01/19 03:51:21;;;;;;;1.27;1.27;;;;;;;-2.28;58.20;96589.94;5091734;28;20432;-54
2022/01/19 03:53:50;;;;;;;0.20;0.20;;;;;;;-2.01;59.81;96575.88;5091826;28;20450;-53
2022/01/19 03:56:19;;;;;;;0.20;0.20;;;;;;;-1.63;58.03;96584.81;5094243;28;20924;-54
2022/01/19 03:58:49;;;;;;;0.30;0.20;;;;;;;-1.31;57.01;96576.97;5096349;28;20424;-54
2022/01/19 04:01:18;;;;;;;0.20;0.20;;;;;;;-1.64;58.21;96573.59;5095713;28;20471;-54
2022/01/19 04:04:09;;;;;;;0.20;0.20;;;;;;;-1.81;59.76;96584.97;5095854;28;20444;-54
2022/01/19 04:07:00;;;;;;;0.30;0.20;;;;;;;-1.62;58.88;96589.06;5095881;28;20858;-53
2022/01/19 04:09:30;;;;;;;0.20;0.20;;;;;;;-1.83;60.78;96589.53;5096169;28;20865;-52
2022/01/19 04:11:59;;;;;;;0.40;0.40;;;;;;;-1.96;59.55;96595.19;5095651;28;20433;-52
2022/01/19 04:14:29;;;;;;;0.20;0.20;;;;;;;-1.60;59.43;96600.91;5096040;28;20488;-52
2022/01/19 04:17:00;;;;;;;0.30;0.30;;;;;;;-1.66;58.66;96588.56;5095685;28;20436;-52
2022/01/19 04:19:32;;;;;;;0.30;0.20;;;;;;;-2.10;59.46;96592.41;5095772;28;20424;-52
2022/01/19 04:22:04;;;;;;;0.20;0.20;;;;;;;-1.65;59.17;96598.00;5095570;28;20846;-53
2022/01/19 04:24:33;;;;;;;0.20;0.20;;;;;;;-1.61;58.01;96609.69;5095550;28;20481;-53
2022/01/19 04:29:57;;;;;;;0.20;0.20;;;;;;;-1.44;56.64;96623.47;5095689;28;20475;-53
2022/01/19 04:32:32;;;;;;;0.20;0.20;;;;;;;-1.33;54.84;96592.75;5095378;28;20867;-53
2022/01/19 04:35:04;;;;;;;0.20;0.20;;;;;;;-1.27;55.51;96600.88;5095321;28;20544;-53
2022/01/19 04:46:12;;;;;;;0.20;0.20;;;;;;;-1.03;51.50;96548.78;5094954;28;20435;-53
2022/01/19 05:03:14;;;;;;;0.20;0.20;;;;;;;-1.39;54.30;96629.81;5094272;28;20919;-53
2022/01/19 05:05:51;;;;;;;0.20;0.20;;;;;;;-1.11;54.78;96627.69;5094395;28;21001;-53
2022/01/19 05:08:37;;;;;;;1.60;1.07;;;;;;;-0.78;53.30;96618.00;5094649;28;20463;-53
2022/01/19 05:13:52;;;;;;;0.30;0.20;;;;;;;-1.25;53.84;96624.94;5094654;28;20456;-53
2022/01/19 05:16:22;;;;;;;0.20;0.20;;;;;;;-1.07;52.94;96625.56;5094638;28;20494;-53
2022/01/19 05:18:52;;;;;;;0.30;0.20;;;;;;;-1.06;51.47;96628.00;5094512;28;20421;-53
2022/01/19 05:21:21;;;;;;;0.30;0.30;;;;;;;-1.84;53.55;96577.50;5094406;28;20871;-53
2022/01/19 05:23:50;;;;;;;0.20;0.20;;;;;;;-1.20;53.13;96636.47;5094589;28;20433;-53
2022/01/19 05:26:19;;;;;;;0.83;0.83;;;;;;;-1.70;53.56;96569.06;5094628;28;20436;-54
2022/01/19 05:28:47;;;;;;;0.20;0.20;;;;;;;-1.15;53.03;96649.00;5094730;28;20885;-52
2022/01/19 05:31:16;;;;;;;0.40;0.37;;;;;;;-1.03;52.26;96643.28;5094181;28;20433;-53
2022/01/19 05:33:44;;;;;;;0.20;0.20;;;;;;;-1.09;53.16;96656.16;5094409;28;20452;-53
2022/01/19 05:36:15;;;;;;;14.73;0.63;;;;;;;-1.22;53.11;96664.44;5094357;28;20953;-53
2022/01/19 05:38:44;;;;;;;0.30;0.20;;;;;;;-1.25;54.05;96671.75;5093932;28;20983;-52
2022/01/19 05:41:13;;;;;;;0.90;0.90;;;;;;;-1.65;55.33;96685.53;5093771;28;20464;-53
2022/01/19 05:43:41;;;;;;;1.10;1.07;;;;;;;-1.91;59.67;96693.44;5094006;28;20985;-53
2022/01/19 05:46:10;;;;;;;0.20;0.20;;;;;;;-1.65;60.55;96691.56;5094199;28;20440;-53
2022/01/19 05:48:39;;;;;;;0.30;0.20;;;;;;;-1.74;59.84;96702.91;5093922;28;20917;-54
2022/01/19 05:51:07;;;;;;;0.47;0.47;;;;;;;-1.40;58.11;96710.59;5093857;28;20471;-54
2022/01/19 05:53:37;;;;;;;0.20;0.20;;;;;;;-0.91;55.55;96701.81;5093866;28;20501;-53
2022/01/19 05:56:07;;;;;;;0.77;0.40;;;;;;;-0.83;53.92;96714.81;5093654;28;20497;-53
2022/01/19 05:58:35;;;;;;;2.93;0.50;;;;;;;-1.16;53.99;96713.19;5094019;28;20429;-53
2022/01/19 06:01:03;;;;;;;0.20;0.20;;;;;;;-2.21;55.67;96596.13;5093283;28;20534;-53
2022/01/19 06:03:35;;;;;;;0.20;0.20;;;;;;;-1.24;55.37;96715.81;5093644;28;20464;-54
2022/01/19 06:06:04;;;;;;;0.30;0.20;;;;;;;-1.94;54.41;96602.81;5093919;28;20429;-52
2022/01/19 06:08:42;;;;;;;0.20;0.20;;;;;;;-1.26;55.49;96722.94;5093683;28;20432;-54
2022/01/19 06:11:13;;;;;;;1.23;1.23;;;;;;;-1.65;56.29;96691.56;5093583;28;20428;-53
2022/01/19 06:13:41;;;;;;;0.80;0.80;;;;;;;-1.48;56.23;96729.59;5093438;28;20436;-53
2022/01/19 06:16:10;;;;;;;0.60;0.60;;;;;;;-1.36;55.88;96730.91;5093476;28;20462;-53
2022/01/19 06:18:42;;;;;;;0.70;0.70;;;;;;;-1.15;55.34;96732.22;5092236;28;20440;-54
2022/01/19 06:21:12;;;;;;;0.50;0.50;;;;;;;-1.33;56.56;96743.59;5093441;28;20463;-53
2022/01/19 06:23:41;;;;;;;0.23;0.20;;;;;;;-1.92;57.50;96701.41;5093412;28;20916;-53
2022/01/19 06:26:09;;;;;;;0.20;0.20;;;;;;;-1.99;60.31;96760.97;5093337;28;20489;-52
2022/01/19 06:28:39;;;;;;;0.20;0.20;;;;;;;-1.21;60.14;96761.50;5093406;28;20509;-53
2022/01/19 06:31:08;;;;;;;0.20;0.20;;;;;;;-0.32;55.65;96750.03;5092974;28;20447;-52
2022/01/19 06:33:37;;;;;;;0.53;0.53;;;;;;;0.29;53.04;96745.91;5093523;28;20518;-52
2022/01/19 06:36:05;;;;;;;0.30;0.30;;;;;;;0.33;50.98;96700.28;5093027;28;20429;-53
2022/01/19 06:38:34;;;;;;;0.20;0.20;;;;;;;-0.44;49.81;96582.09;5093313;28;20440;-53
2022/01/19 06:41:02;;;;;;;1.57;1.17;;;;;;;0.60;50.49;96765.81;5093269;28;20513;-53
2022/01/19 06:43:31;;;;;;;1.83;1.73;;;;;;;1.05;49.44;96762.41;5092931;28;20503;-53
2022/01/19 06:46:01;;;;;;;0.70;0.70;;;;;;;0.07;48.83;96596.31;5092858;28;20967;-53
2022/01/19 06:48:29;;;;;;;1.40;1.40;;;;;;;1.28;48.78;96776.25;5092671;28;20494;-53
2022/01/19 06:50:58;;;;;;;5.13;2.63;;;;;;;1.70;47.74;96778.31;5092695;28;20539;-54
2022/01/19 06:53:27;;;;;;;2.57;2.47;;;;;;;-0.37;47.21;96423.34;5092682;28;20425;-53
2022/01/19 06:55:57;;;;;;;1.27;1.27;;;;;;;2.29;46.15;96773.94;5092487;28;20977;-53
2022/01/19 06:58:26;;;;;;;2.00;1.90;;;;;;;2.73;45.75;96775.66;5092652;28;20424;-53
2022/01/19 07:00:56;;;;;;;1.80;1.70;;;;;;;2.96;45.02;96769.25;5092268;28;20528;-53
2022/01/19 07:03:26;;;;;;;2.73;2.57;;;;;;;3.03;45.00;96756.25;5092778;28;20916;-53
2022/01/19 07:05:56;;;;;;;1.70;1.60;;;;;;;2.91;43.77;96689.66;5092838;28;20436;-53
2022/01/19 07:08:24;;;;;;;6.00;4.77;;;;;;;3.46;43.38;96773.56;5092762;28;20429;-52
2022/01/19 07:10:53;;;;;;;2.30;1.73;;;;;;;3.92;41.64;96763.41;5092493;28;20424;-53
2022/01/19 07:13:21;;;;;;;2.30;2.10;;;;;;;4.62;40.77;96770.22;5092580;28;20915;-53
2022/01/19 07:15:50;;;;;;;6.50;3.30;;;;;;;4.98;39.27;96776.00;5092662;28;20440;-53
2022/01/19 07:18:18;;;;;;;15.93;2.13;;;;;;;4.59;39.07;96776.69;5092670;28;20431;-53
2022/01/19 07:20:48;;;;;;;2.33;2.23;;;;;;;5.26;38.00;96762.72;5092296;28;20490;-52
2022/01/19 07:23:17;;;;;;;7.23;5.03;;;;;;;5.05;38.01;96769.75;5092332;28;20807;-51
2022/01/19 07:25:45;;;;;;;4.30;4.10;;;;;;;5.33;38.21;96769.59;5092039;28;20444;-51
2022/01/19 07:28:14;;;;;;;5.30;1.10;;;;;;;5.75;37.43;96731.53;5092422;28;20900;-51
2022/01/19 07:30:42;;;;;;;2.47;2.37;;;;;;;6.03;37.42;96753.19;5090405;28;20490;-52
2022/01/19 07:33:11;;;;;;;14.17;2.73;;;;;;;6.20;37.06;96746.47;5089333;28;20423;-51
2022/01/19 07:35:40;;;;;;;3.20;2.90;;;;;;;6.49;36.95;96753.06;5092060;28;21031;-51
2022/01/19 07:38:10;;;;;;;3.73;3.53;;;;;;;6.59;36.80;96752.63;5091400;28;20456;-51
2022/01/19 07:40:38;;;;;;;4.47;4.17;;;;;;;7.16;35.06;96752.50;5092007;28;20493;-52
2022/01/19 07:43:08;;;;;;;2.30;2.00;;;;;;;7.33;34.79;96734.38;5091726;28;21023;-53
2022/01/19 07:45:36;;;;;;;2.10;1.90;;;;;;;7.91;34.22;96740.19;5092022;28;20841;-49
2022/01/19 07:48:06;;;;;;;0.60;0.60;;;;;;;6.78;36.83;96743.84;5091567;28;20450;-50
2022/01/19 07:50:34;;;;;;;0.83;0.83;;;;;;;6.17;37.70;96748.72;5091282;28;20432;-51
2022/01/19 07:53:04;;;;;;;3.40;1.33;;;;;;;6.23;38.19;96751.31;5091537;28;20509;-50
2022/01/19 07:55:34;;;;;;;1.33;1.30;;;;;;;6.58;37.69;96748.38;5090876;28;20928;-50
2022/01/19 07:58:03;;;;;;;1.90;0.70;;;;;;;6.58;37.58;96758.94;5091717;28;20488;-51
2022/01/19 08:00:33;;;;;;;2.03;1.93;;;;;;;6.43;38.61;96758.34;5091546;28;20425;-51
2022/01/19 08:03:02;;;;;;;1.47;1.37;;;;;;;7.13;37.27;96749.53;5091306;28;20466;-51
2022/01/19 08:05:30;;;;;;;0.80;0.80;;;;;;;7.83;36.62;96735.97;5091707;28;20441;-51
2022/01/19 08:07:59;;;;;;;1.43;1.33;;;;;;;7.35;36.72;96738.41;5091864;28;20458;-52
2022/01/19 08:10:29;;;;;;;1.33;0.70;;;;;;;7.55;36.68;96735.63;5091668;28;20924;-52
2022/01/19 08:13:02;;;;;;;8.03;1.07;;;;;;;7.49;36.54;96739.09;5091714;28;20489;-52
2022/01/19 08:15:30;;;;;;;1.73;1.13;;;;;;;7.59;36.83;96732.31;5091802;28;20471;-52
2022/01/19 08:17:59;;;;;;;5.10;0.60;;;;;;;8.61;34.87;96723.78;5091445;28;20435;-56
2022/01/19 08:20:28;;;;;;;1.23;0.73;;;;;;;8.35;34.35;96725.94;5091681;28;20421;-56
2022/01/19 08:22:56;;;;;;;0.50;0.50;;;;;;;7.86;34.63;96652.91;5091275;28;20925;-56
2022/01/19 08:25:25;;;;;;;0.70;0.70;;;;;;;8.27;35.03;96721.78;5090414;28;20444;-57
2022/01/19 08:27:53;;;;;;;6.87;2.50;;;;;;;7.47;35.04;96698.94;5090352;28;20528;-58
2022/01/19 08:30:23;;;;;;;1.03;1.03;;;;;;;8.38;34.09;96693.78;5091029;28;20432;-59
2022/01/19 08:32:51;;;;;;;0.57;0.57;;;;;;;7.66;35.23;96733.06;5091487;28;20468;-60
2022/01/19 08:35:20;;;;;;;1.87;0.73;;;;;;;8.46;34.38;96727.84;5091461;28;20462;-60
2022/01/19 08:37:49;;;;;;;0.43;0.43;;;;;;;4.91;35.20;96274.22;5091193;28;20454;-60
2022/01/19 08:40:25;;;;;;;0.40;0.37;;;;;;;7.44;36.03;96733.66;5091319;28;20835;-60
2022/01/19 08:42:55;;;;;;;0.63;0.63;;;;;;;7.11;34.79;96635.56;5094001;28;20488;-58
2022/01/19 08:45:25;;;;;;;0.87;0.87;;;;;;;8.22;34.27;96726.88;5095209;28;20481;-57
2022/01/19 08:47:54;;;;;;;1.13;1.07;;;;;;;8.62;33.33;96724.59;5095334;28;20440;-58
2022/01/19 08:50:23;;;;;;;0.40;0.20;;;;;;;9.60;31.93;96731.13;5094883;28;20478;-57
2022/01/19 08:52:52;;;;;;;0.40;0.30;;;;;;;10.50;30.21;96723.66;5095189;28;20511;-58
2022/01/19 08:55:20;;;;;;;0.60;0.60;;;;;;;10.62;30.10;96722.56;5095216;28;20799;-57
2022/01/19 08:57:50;;;;;;;0.90;0.90;;;;;;;11.95;29.19;96714.84;5095142;28;20846;-57
2022/01/19 09:00:21;;;;;;;0.50;0.40;;;;;;;13.14;28.05;96653.78;5095121;28;20443;-55
2022/01/19 09:02:51;;;;;;;1.77;1.67;;;;;;;12.87;27.74;96717.63;5094521;28;20431;-56
2022/01/19 09:05:19;;;;;;;1.33;0.80;;;;;;;12.66;27.46;96716.59;5093804;28;20467;-56
2022/01/19 09:07:48;;;;;;;0.50;0.30;;;;;;;12.51;27.45;96710.28;5095047;28;20428;-57
2022/01/19 09:10:17;;;;;;;0.40;0.30;;;;;;;12.52;27.25;96710.00;5094907;28;20766;-56
2022/01/19 09:12:46;;;;;;;0.87;0.87;;;;;;;12.58;27.48;96706.38;5094013;28;20501;-65
2022/01/19 09:15:15;;;;;;;1.23;1.13;;;;;;;12.43;26.99;96692.91;5094753;28;20436;-63
2022/01/19 09:17:43;;;;;;;0.57;0.57;;;;;;;13.12;26.14;96688.66;5094924;28;20830;-63
2022/01/19 09:20:15;;;;;;;0.43;0.37;;;;;;;13.36;25.75;96683.81;5094112;28;20523;-65
2022/01/19 09:22:43;;;;;;;1.57;1.47;;;;;;;13.85;25.11;96685.28;5094640;28;20433;-53
2022/01/19 09:25:13;;;;;;;0.47;0.37;;;;;;;14.60;23.99;96639.53;5094197;28;21068;-52
2022/01/19 09:27:41;;;;;;;0.40;0.30;;;;;;;14.22;23.96;96674.56;5094204;28;20434;-52
2022/01/19 09:30:14;;;;;;;1.13;0.63;;;;;;;14.66;23.49;96667.06;5094305;28;20952;-53
2022/01/19 09:32:44;;;;;;;0.50;0.40;;;;;;;13.43;24.17;96651.66;5094082;28;20435;-53
2022/01/19 09:35:23;;;;;;;0.50;0.50;;;;;;;15.84;23.26;96643.69;5094196;28;20433;-52
2022/01/19 09:37:52;;;;;;;0.77;0.77;;;;;;;14.83;22.66;96547.50;5093956;28;20483;-53
2022/01/19 09:40:29;;;;;;;1.20;0.87;;;;;;;11.58;25.17;96649.97;5094311;28;20432;-52
2022/01/19 09:43:07;;;;;;;1.17;1.07;;;;;;;10.47;27.73;96650.69;5094474;28;20493;-52
2022/01/19 09:45:36;;;;;;;1.27;1.23;;;;;;;10.13;28.03;96647.09;5093637;28;20472;-52
2022/01/19 09:48:05;;;;;;;1.47;1.37;;;;;;;12.70;24.39;96634.41;5093896;28;20951;-52
2022/01/19 09:50:35;;;;;;;0.63;0.43;;;;;;;13.92;23.80;96626.41;5094069;28;20446;-52
2022/01/19 09:53:05;;;;;;;0.93;0.93;;;;;;;14.25;23.14;96619.91;5092704;28;20847;-52
2022/01/19 09:55:34;;;;;;;0.50;0.40;;;;;;;14.48;24.04;96606.16;5093388;28;20509;-52
2022/01/19 09:58:03;;;;;;;2.20;2.10;;;;;;;13.25;24.34;96607.56;5094103;28;20507;-52
2022/01/19 10:00:31;;;;;;;0.80;0.80;;;;;;;14.56;24.51;96602.97;5093550;28;20425;-52
2022/01/19 10:03:17;;;;;;;1.00;0.90;;;;;;;14.54;23.49;96591.78;5093579;28;20850;-53
2022/01/19 10:05:59;;;;;;;0.70;0.50;;;;;;;15.42;23.10;96590.53;5094003;28;20464;-53
2022/01/19 10:08:30;;;;;;;0.40;0.30;;;;;;;13.92;24.91;96576.56;5093766;28;20424;-53
2022/01/19 10:11:13;;;;;;;8.87;1.83;;;;;;;12.81;25.75;96595.41;5093625;28;20420;-53
2022/01/19 10:19:22;;;;;;;1.37;0.90;;;;;;;15.12;23.47;96572.66;5088438;28;20445;-52
2022/01/19 10:22:05;;;;;;;0.70;0.60;;;;;;;14.16;24.48;96570.81;5093450;28;20433;-53
2022/01/19 10:24:46;;;;;;;3.90;1.50;;;;;;;15.60;23.36;96549.91;5093390;28;20517;-54
2022/01/19 10:27:28;;;;;;;0.73;0.73;;;;;;;13.98;23.81;96559.53;5093101;28;20421;-52
2022/01/19 10:30:12;;;;;;;0.87;0.87;;;;;;;16.13;22.00;96526.22;5092872;28;20489;-53
2022/01/19 10:32:43;;;;;;;0.77;0.43;;;;;;;15.45;22.24;96487.66;5093240;28;20428;-53
2022/01/19 10:35:17;;;;;;;2.70;1.43;;;;;;;16.71;21.46;96532.59;5093276;28;20428;-53
2022/01/19 10:37:49;;;;;;;5.13;1.27;;;;;;;15.10;22.43;96529.38;5093124;28;20415;-53
2022/01/19 10:40:19;;;;;;;0.60;0.50;;;;;;;16.65;21.39;96523.00;5093085;28;20424;-53
2022/01/19 10:42:48;;;;;;;0.40;0.30;;;;;;;16.75;20.33;96505.00;5093319;28;20424;-53
2022/01/19 10:45:17;;;;;;;0.93;0.93;;;;;;;17.18;19.88;96511.34;5092797;28;20472;-52
2022/01/19 10:47:50;;;;;;;0.67;0.60;;;;;;;15.55;21.63;96503.69;5092682;28;20463;-53
2022/01/19 10:50:22;;;;;;;0.63;0.57;;;;;;;16.62;21.12;96505.63;5092548;28;20817;-52
2022/01/19 10:52:55;;;;;;;0.57;0.57;;;;;;;17.04;20.23;96505.84;5092729;28;20466;-53
2022/01/19 10:55:30;;;;;;;0.60;0.60;;;;;;;16.48;19.81;96488.56;5092530;28;20440;-53
2022/01/19 10:58:00;;;;;;;0.60;0.43;;;;;;;17.02;19.84;96502.66;5093166;28;20427;-52
2022/01/19 11:00:31;;;;;;;0.67;0.67;;;;;;;15.86;20.82;96495.28;5092381;28;20485;-53
2022/01/19 11:03:14;;;;;;;1.47;1.30;;;;;;;15.69;20.95;96504.72;5092325;28;20467;-53
2022/01/19 11:05:46;;;;;;;1.23;1.23;;;;;;;15.53;21.24;96497.84;5092446;28;20865;-52
2022/01/19 11:08:18;;;;;;;2.27;0.50;;;;;;;17.28;19.28;96489.81;5092500;28;20487;-54
2022/01/19 11:10:49;;;;;;;0.90;0.33;;;;;;;18.26;18.02;96460.56;5093017;28;20421;-53
2022/01/19 11:13:28;;;;;;;0.80;0.80;;;;;;;17.66;18.58;96475.50;5091997;28;20424;-53
2022/01/19 11:15:58;;;;;;;0.97;0.90;;;;;;;16.51;18.81;96471.97;5092227;28;20432;-53
2022/01/19 11:18:29;;;;;;;1.10;0.77;;;;;;;15.90;19.06;96458.13;5091592;28;20468;-54
2022/01/19 11:21:02;;;;;;;1.13;0.80;;;;;;;16.36;18.70;96461.34;5092628;28;20424;-54
2022/01/19 11:23:43;;;;;;;0.40;0.33;;;;;;;17.26;18.73;96451.78;5092475;28;20427;-52
2022/01/19 11:26:17;;;;;;;1.57;1.43;;;;;;;15.10;19.01;96457.25;5092522;28;20476;-52
2022/01/19 11:28:47;;;;;;;0.40;0.30;;;;;;;15.87;19.99;96448.78;5091663;28;20440;-52
2022/01/19 11:31:20;;;;;;;0.60;0.60;;;;;;;14.60;19.25;96444.75;5092010;28;20492;-52
2022/01/19 11:33:52;;;;;;;0.40;0.37;;;;;;;14.85;19.18;96440.50;5091896;28;20428;-52
2022/01/19 11:36:23;;;;;;;0.90;0.50;;;;;;;15.58;18.90;96436.34;5092464;28;20552;-52
2022/01/19 11:39:05;;;;;;;1.30;0.63;;;;;;;15.85;18.49;96439.44;5091419;28;20794;-52
2022/01/19 11:41:43;;;;;;;0.87;0.60;;;;;;;16.27;19.19;96433.56;5091918;28;20436;-52
2022/01/19 11:44:16;;;;;;;0.50;0.33;;;;;;;16.32;17.92;96433.53;5092140;28;20436;-53
2022/01/19 11:46:48;;;;;;;0.60;0.43;;;;;;;15.83;17.23;96431.69;5091810;28;20555;-53
2022/01/19 11:49:19;;;;;;;0.60;0.40;;;;;;;15.87;18.89;96427.38;5091889;28;20424;-53
2022/01/19 11:51:54;;;;;;;0.40;0.30;;;;;;;17.55;18.62;96425.78;5091080;28;20425;-53
2022/01/19 11:54:30;;;;;;;0.40;0.40;;;;;;;17.71;17.24;96421.00;5092273;28;20481;-54
2022/01/19 11:57:10;;;;;;;0.47;0.33;;;;;;;16.98;17.93;96410.53;5091899;28;20424;-53
2022/01/19 12:00:16;;;;;;;0.40;0.40;;;;;;;16.33;17.96;96409.19;5091667;28;20506;-53
2022/01/19 12:02:47;;;;;;;0.50;0.50;;;;;;;16.95;17.74;96399.63;5070439;28;20467;-53
2022/01/19 12:05:40;;;;;;;0.40;0.30;;;;;;;16.09;18.57;96407.50;5091280;28;20536;-52
2022/01/19 12:08:27;;;;;;;0.40;0.37;;;;;;;14.39;19.41;96405.00;5091720;28;20431;-52
2022/01/19 12:11:01;;;;;;;0.40;0.30;;;;;;;15.17;19.42;96385.69;5090023;28;20511;-53
2022/01/19 12:16:31;;;;;;;1.00;1.00;;;;;;;15.94;18.87;96395.00;5089750;28;20489;-53
2022/01/19 12:19:15;;;;;;;0.80;0.47;;;;;;;15.73;19.30;96396.19;5095982;28;20435;-54
2022/01/19 12:21:48;;;;;;;0.60;0.40;;;;;;;17.00;19.45;96394.22;5095522;28;20447;-54
2022/01/19 12:24:36;;;;;;;0.40;0.20;;;;;;;16.17;18.66;96383.63;5095445;28;20432;-53
2022/01/19 12:27:26;;;;;;;1.13;0.40;;;;;;;17.52;18.91;96387.97;5095290;28;20467;-53
2022/01/19 12:30:07;;;;;;;0.40;0.30;;;;;;;17.69;17.45;96378.41;5095508;28;20420;-54
2022/01/19 12:32:48;;;;;;;0.53;0.50;;;;;;;16.02;18.43;96381.03;5095623;28;20432;-53
2022/01/19 12:35:20;;;;;;;0.40;0.30;;;;;;;14.17;20.22;96383.88;5095458;28;20486;-54
2022/01/19 12:37:51;;;;;;;0.47;0.40;;;;;;;15.48;20.03;96369.59;5095251;28;20428;-54
2022/01/19 12:40:43;;;;;;;0.70;0.50;;;;;;;15.19;20.33;96372.06;5095279;28;20451;-54
2022/01/19 12:43:28;;;;;;;0.40;0.30;;;;;;;16.74;20.00;96364.19;5094900;28;20428;-54
2022/01/19 12:45:57;;;;;;;0.40;0.40;;;;;;;17.90;18.66;96354.81;5094857;28;20842;-54
2022/01/19 12:48:41;;;;;;;0.40;0.30;;;;;;;18.43;18.56;96296.28;5095475;28;20420;-54
2022/01/19 12:51:40;;;;;;;0.60;0.60;;;;;;;15.92;19.77;96359.72;5095430;28;20432;-52
2022/01/19 12:54:12;;;;;;;0.40;0.30;;;;;;;16.17;19.89;96351.50;5095021;28;20877;-52
2022/01/19 12:56:58;;;;;;;1.83;1.73;;;;;;;15.41;20.54;96331.63;5094931;28;20464;-53
2022/01/19 12:59:28;;;;;;;0.50;0.50;;;;;;;16.23;20.36;96345.06;5095226;28;20455;-54
2022/01/19 13:01:57;;;;;;;0.40;0.30;;;;;;;17.31;19.08;96339.19;5094761;28;20915;-53
2022/01/19 13:04:29;;;;;;;2.83;0.87;;;;;;;17.22;18.91;96335.56;5094856;28;20924;-53
2022/01/19 13:07:16;;;;;;;0.40;0.30;;;;;;;17.74;18.68;96331.94;5094877;28;20631;-53
2022/01/19 13:10:07;;;;;;;1.77;0.97;;;;;;;17.19;18.66;96335.31;5094385;28;20478;-53
2022/01/19 13:12:43;;;;;;;0.40;0.30;;;;;;;15.99;19.45;96328.09;5094013;28;20440;-52
2022/01/19 13:15:13;;;;;;;0.43;0.30;;;;;;;16.05;19.62;96321.66;5094379;28;20463;-52